Time;durP1;ratioP1;P1;durP2;ratioP2;P2;SDS_P1;SDS_P2;PMS_P1;PMS_P2;Temp;Humidity;BMP_temperature;BMP_pressure;BME280_temperature;BME280_humidity;BME280_pressure;Samples;Min_cycle;Max_cycle;Signal;HPM_P1;HPM_P2
2021/03/10 00:01:58;;;;;;;0.93;0.93;;;;;;;;;;5050741;28;20189;-68
2021/03/10 00:04:24;;;;;;;0.82;0.80;;;;;;;;;;5049767;28;20234;-69
2021/03/10 00:06:51;;;;;;;0.45;0.45;;;;;;;;;;5050701;28;20200;-68
2021/03/10 00:09:17;;;;;;;0.10;0.10;;;;;;;;;;5049889;28;20168;-69
2021/03/10 00:11:43;;;;;;;0.85;0.85;;;;;;;;;;5050484;28;20189;-68
2021/03/10 00:14:09;;;;;;;0.20;0.20;;;;;;;;;;5049793;28;20254;-68
2021/03/10 00:16:35;;;;;;;0.20;0.20;;;;;;;;;;5048957;28;20200;-69
2021/03/10 00:19:01;;;;;;;0.25;0.25;;;;;;;;;;5049674;28;20233;-69
2021/03/10 00:21:28;;;;;;;0.30;0.30;;;;;;;;;;5050227;28;20211;-67
2021/03/10 00:23:54;;;;;;;0.55;0.55;;;;;;;;;;5050353;28;20161;-68
2021/03/10 00:26:20;;;;;;;0.17;0.17;;;;;;;;;;5049235;28;20193;-69
2021/03/10 00:28:46;;;;;;;0.35;0.35;;;;;;;;;;5049600;28;20233;-69
2021/03/10 00:31:12;;;;;;;0.40;0.40;;;;;;;;;;5029765;28;20646;-68
2021/03/10 00:33:38;;;;;;;1.30;1.20;;;;;;;;;;5030380;28;20166;-68
2021/03/10 00:36:05;;;;;;;0.68;0.68;;;;;;;;;;5029285;28;20227;-69
2021/03/10 00:38:31;;;;;;;0.10;0.10;;;;;;;;;;5029543;28;20173;-68
2021/03/10 00:40:57;;;;;;;0.75;0.70;;;;;;;;;;5028154;28;20166;-69
2021/03/10 00:43:23;;;;;;;0.10;0.10;;;;;;;;;;5041192;28;20225;-70
2021/03/10 00:45:49;;;;;;;0.17;0.13;;;;;;;;;;5030076;28;20174;-69
2021/03/10 00:48:15;;;;;;;4.03;1.23;;;;;;;;;;5034718;28;20217;-68
2021/03/10 00:50:42;;;;;;;0.98;0.98;;;;;;;;;;5048155;28;20196;-69
2021/03/10 00:53:08;;;;;;;0.40;0.40;;;;;;;;;;5049749;28;20170;-69
2021/03/10 00:55:34;;;;;;;0.52;0.52;;;;;;;;;;5048524;28;20263;-68
2021/03/10 00:58:00;;;;;;;1.25;1.15;;;;;;;;;;5030895;28;20216;-69
2021/03/10 01:00:26;;;;;;;0.73;0.73;;;;;;;;;;5029768;28;20162;-69
2021/03/10 01:02:53;;;;;;;0.63;0.60;;;;;;;;;;5029825;28;20205;-69
2021/03/10 01:05:19;;;;;;;0.90;0.90;;;;;;;;;;5029848;28;20214;-70
2021/03/10 01:07:45;;;;;;;0.85;0.52;;;;;;;;;;5029415;28;20686;-67
2021/03/10 01:10:12;;;;;;;0.55;0.55;;;;;;;;;;5028437;28;20705;-69
2021/03/10 01:12:39;;;;;;;1.45;1.35;;;;;;;;;;5029654;28;20173;-69
2021/03/10 01:15:07;;;;;;;0.95;0.95;;;;;;;;;;5029681;28;20196;-69
2021/03/10 01:17:33;;;;;;;1.50;1.42;;;;;;;;;;5027803;28;20217;-69
2021/03/10 01:19:59;;;;;;;1.13;1.02;;;;;;;;;;5027136;28;20172;-69
2021/03/10 01:22:25;;;;;;;0.13;0.13;;;;;;;;;;5029533;28;20189;-69
2021/03/10 01:24:51;;;;;;;0.77;0.77;;;;;;;;;;5028201;28;20170;-69
2021/03/10 01:27:17;;;;;;;0.35;0.35;;;;;;;;;;5029399;28;20190;-68
2021/03/10 01:29:45;;;;;;;0.20;0.20;;;;;;;;;;5028285;28;20162;-68
2021/03/10 01:32:11;;;;;;;0.75;0.75;;;;;;;;;;5027571;28;20266;-68
2021/03/10 01:34:37;;;;;;;0.68;0.68;;;;;;;;;;5028114;28;20576;-68
2021/03/10 01:37:03;;;;;;;0.20;0.20;;;;;;;;;;5029243;28;20209;-69
2021/03/10 01:39:30;;;;;;;0.50;0.50;;;;;;;;;;5028486;28;20166;-69
2021/03/10 01:41:57;;;;;;;1.27;1.27;;;;;;;;;;5032160;28;20201;-67
2021/03/10 01:44:24;;;;;;;0.45;0.45;;;;;;;;;;5049067;28;20174;-67
2021/03/10 01:46:50;;;;;;;1.58;1.48;;;;;;;;;;5048974;28;20693;-69
2021/03/10 01:49:16;;;;;;;0.70;0.70;;;;;;;;;;5046433;28;20224;-74
2021/03/10 01:51:42;;;;;;;0.35;0.35;;;;;;;;;;5049288;28;20264;-76
2021/03/10 01:54:08;;;;;;;0.13;0.13;;;;;;;;;;5051755;28;20204;-75
2021/03/10 01:56:35;;;;;;;1.45;1.27;;;;;;;;;;5049026;28;20257;-74
2021/03/10 01:59:02;;;;;;;0.20;0.20;;;;;;;;;;5031512;28;20170;-75
2021/03/10 02:01:28;;;;;;;0.35;0.35;;;;;;;;;;5031783;28;20170;-74
2021/03/10 02:03:55;;;;;;;0.10;0.10;;;;;;;;;;5031064;28;20193;-76
2021/03/10 02:06:26;;;;;;;0.47;0.47;;;;;;;;;;5033052;28;20232;-76
2021/03/10 02:09:00;;;;;;;0.40;0.40;;;;;;;;;;5030929;28;20177;-74
2021/03/10 02:11:33;;;;;;;1.05;0.95;;;;;;;;;;5031606;28;20177;-76
2021/03/10 02:14:04;;;;;;;0.20;0.20;;;;;;;;;;5032111;28;20166;-75
2021/03/10 02:16:50;;;;;;;0.80;0.80;;;;;;;;;;5031692;28;20205;-76
2021/03/10 02:19:16;;;;;;;0.17;0.17;;;;;;;;;;5032158;28;20154;-74
2021/03/10 02:22:04;;;;;;;0.10;0.10;;;;;;;;;;5032689;28;20201;-76
2021/03/10 02:24:49;;;;;;;0.10;0.10;;;;;;;;;;5030675;28;20238;-75
2021/03/10 02:27:40;;;;;;;0.20;0.20;;;;;;;;;;5032567;28;20257;-76
2021/03/10 02:30:08;;;;;;;0.25;0.25;;;;;;;;;;5031996;28;20163;-74
2021/03/10 02:32:35;;;;;;;1.35;0.73;;;;;;;;;;5032678;28;20166;-74
2021/03/10 02:35:03;;;;;;;0.43;0.28;;;;;;;;;;5031912;28;20170;-76
2021/03/10 02:37:29;;;;;;;0.95;0.95;;;;;;;;;;5032248;28;20193;-76
2021/03/10 02:39:56;;;;;;;0.10;0.10;;;;;;;;;;5031590;28;20647;-76
2021/03/10 02:42:23;;;;;;;0.88;0.65;;;;;;;;;;5035355;28;20218;-74
2021/03/10 02:44:49;;;;;;;0.43;0.43;;;;;;;;;;5032423;28;20155;-75
2021/03/10 02:47:16;;;;;;;0.52;0.35;;;;;;;;;;5031308;28;20205;-75
2021/03/10 02:49:43;;;;;;;0.63;0.63;;;;;;;;;;5050027;28;20248;-75
2021/03/10 02:52:11;;;;;;;0.15;0.15;;;;;;;;;;5050805;28;20177;-75
2021/03/10 02:54:37;;;;;;;1.42;0.70;;;;;;;;;;5051914;28;20169;-75
2021/03/10 02:57:04;;;;;;;0.90;0.90;;;;;;;;;;5050800;28;20201;-74
2021/03/10 02:59:30;;;;;;;0.20;0.20;;;;;;;;;;5049875;28;20181;-75
2021/03/10 03:01:56;;;;;;;1.02;1.02;;;;;;;;;;5051621;28;20220;-75
2021/03/10 03:04:22;;;;;;;0.40;0.40;;;;;;;;;;5051457;28;20150;-75
2021/03/10 03:06:49;;;;;;;1.33;1.13;;;;;;;;;;5051815;28;20220;-76
2021/03/10 03:09:15;;;;;;;0.75;0.75;;;;;;;;;;5050003;28;20166;-74
2021/03/10 03:11:41;;;;;;;0.98;0.98;;;;;;;;;;5048070;28;20809;-76
2021/03/10 03:14:08;;;;;;;0.10;0.10;;;;;;;;;;5049644;28;20188;-75
2021/03/10 03:16:35;;;;;;;0.55;0.55;;;;;;;;;;5050747;28;20643;-74
2021/03/10 03:19:02;;;;;;;0.98;0.77;;;;;;;;;;5049897;28;20169;-76
2021/03/10 03:21:28;;;;;;;0.50;0.50;;;;;;;;;;5051173;28;20204;-74
2021/03/10 03:23:55;;;;;;;0.30;0.30;;;;;;;;;;5051439;28;20153;-75
2021/03/10 03:26:22;;;;;;;0.30;0.30;;;;;;;;;;5050205;28;20173;-75
2021/03/10 03:28:49;;;;;;;0.10;0.10;;;;;;;;;;5049210;28;20176;-76
2021/03/10 03:31:16;;;;;;;1.13;0.98;;;;;;;;;;5050450;28;20189;-74
2021/03/10 03:33:43;;;;;;;1.17;1.08;;;;;;;;;;5050975;28;20192;-74
2021/03/10 03:36:10;;;;;;;0.82;0.82;;;;;;;;;;5049996;28;20208;-76
2021/03/10 03:38:38;;;;;;;0.28;0.28;;;;;;;;;;5050582;28;20170;-75
2021/03/10 03:41:04;;;;;;;0.00;0.00;;;;;;;;;;5049951;28;20220;-76
2021/03/10 03:43:31;;;;;;;0.20;0.20;;;;;;;;;;5050891;28;20235;-74
2021/03/10 03:45:58;;;;;;;0.43;0.43;;;;;;;;;;5049570;28;20173;-74
2021/03/10 03:48:24;;;;;;;1.20;0.85;;;;;;;;;;5048838;28;20225;-74
2021/03/10 03:50:50;;;;;;;0.30;0.30;;;;;;;;;;5048729;28;20311;-74
2021/03/10 03:53:16;;;;;;;1.02;0.95;;;;;;;;;;5050565;28;20176;-76
2021/03/10 03:55:43;;;;;;;0.10;0.10;;;;;;;;;;5050693;28;20169;-76
2021/03/10 03:58:09;;;;;;;0.95;0.95;;;;;;;;;;5049677;28;20177;-75
2021/03/10 04:00:35;;;;;;;0.20;0.20;;;;;;;;;;5050732;28;20268;-75
2021/03/10 04:03:01;;;;;;;1.35;1.15;;;;;;;;;;5048443;28;20222;-75
2021/03/10 04:05:28;;;;;;;0.30;0.30;;;;;;;;;;5050656;28;20173;-76
2021/03/10 04:07:55;;;;;;;3.03;2.05;;;;;;;;;;5049825;28;20165;-75
2021/03/10 04:10:25;;;;;;;1.45;1.45;;;;;;;;;;5049278;28;20197;-74
2021/03/10 04:12:52;;;;;;;1.02;0.80;;;;;;;;;;5049418;28;20165;-74
2021/03/10 04:15:19;;;;;;;0.57;0.57;;;;;;;;;;5048094;28;20173;-76
2021/03/10 04:17:45;;;;;;;0.77;0.57;;;;;;;;;;5048702;28;20165;-76
2021/03/10 04:20:13;;;;;;;1.17;1.17;;;;;;;;;;5049924;28;20252;-74
2021/03/10 04:22:39;;;;;;;0.20;0.20;;;;;;;;;;5050176;28;20224;-74
2021/03/10 04:25:06;;;;;;;0.60;0.60;;;;;;;;;;5049443;28;20175;-74
2021/03/10 04:27:33;;;;;;;0.65;0.65;;;;;;;;;;5048251;28;20264;-74
2021/03/10 04:29:59;;;;;;;0.80;0.80;;;;;;;;;;5049301;28;20260;-75
2021/03/10 04:32:25;;;;;;;0.30;0.30;;;;;;;;;;5050023;28;20626;-74
2021/03/10 04:34:52;;;;;;;1.20;1.17;;;;;;;;;;5049158;28;20184;-76
2021/03/10 04:37:18;;;;;;;0.73;0.68;;;;;;;;;;5050023;28;20166;-76
2021/03/10 04:39:44;;;;;;;0.68;0.63;;;;;;;;;;5049115;28;20267;-75
2021/03/10 04:42:11;;;;;;;0.85;0.85;;;;;;;;;;5048553;28;20190;-74
2021/03/10 04:44:37;;;;;;;0.20;0.20;;;;;;;;;;5049647;28;20217;-75
2021/03/10 04:47:04;;;;;;;0.90;0.90;;;;;;;;;;5048014;28;20189;-75
2021/03/10 04:49:30;;;;;;;0.38;0.38;;;;;;;;;;5048749;28;20220;-74
2021/03/10 04:51:56;;;;;;;0.30;0.30;;;;;;;;;;5049668;28;20215;-76
2021/03/10 04:54:22;;;;;;;2.15;1.95;;;;;;;;;;5048323;28;20204;-76
2021/03/10 04:56:49;;;;;;;0.30;0.30;;;;;;;;;;5047241;28;20193;-75
2021/03/10 04:59:15;;;;;;;1.50;1.48;;;;;;;;;;5048503;28;20217;-75
2021/03/10 05:01:41;;;;;;;0.47;0.47;;;;;;;;;;5049112;28;20161;-77
2021/03/10 05:04:07;;;;;;;0.32;0.32;;;;;;;;;;5049480;28;20177;-75
2021/03/10 05:06:33;;;;;;;2.10;2.00;;;;;;;;;;5048994;28;20161;-76
2021/03/10 05:08:59;;;;;;;1.80;1.67;;;;;;;;;;5048434;28;20217;-75
2021/03/10 05:11:26;;;;;;;0.63;0.63;;;;;;;;;;5048982;28;20197;-76
2021/03/10 05:13:52;;;;;;;0.82;0.68;;;;;;;;;;5049317;28;20503;-75
2021/03/10 05:16:19;;;;;;;1.10;1.10;;;;;;;;;;5047394;28;20229;-76
2021/03/10 05:18:45;;;;;;;0.82;0.82;;;;;;;;;;5047209;28;20161;-76
2021/03/10 05:21:11;;;;;;;0.10;0.10;;;;;;;;;;5048975;28;20213;-75
2021/03/10 05:23:43;;;;;;;0.55;0.55;;;;;;;;;;5047642;28;20197;-76
2021/03/10 05:26:10;;;;;;;0.40;0.40;;;;;;;;;;5048764;28;20241;-76
2021/03/10 05:28:37;;;;;;;0.10;0.10;;;;;;;;;;5048753;28;20158;-77
2021/03/10 05:31:03;;;;;;;0.68;0.68;;;;;;;;;;5049347;28;20665;-75
2021/03/10 05:33:29;;;;;;;0.10;0.10;;;;;;;;;;5049149;28;20156;-74
2021/03/10 05:35:55;;;;;;;0.10;0.10;;;;;;;;;;5047748;28;20170;-74
2021/03/10 05:38:21;;;;;;;0.93;0.93;;;;;;;;;;5046786;28;20172;-74
2021/03/10 05:40:50;;;;;;;0.10;0.10;;;;;;;;;;5047636;28;20224;-74
2021/03/10 05:43:17;;;;;;;0.38;0.38;;;;;;;;;;5048460;28;20189;-74
2021/03/10 05:45:44;;;;;;;0.68;0.68;;;;;;;;;;5048490;28;20245;-74
2021/03/10 05:48:11;;;;;;;1.73;1.65;;;;;;;;;;5048034;28;20215;-74
2021/03/10 05:50:37;;;;;;;0.35;0.35;;;;;;;;;;5047694;28;20216;-74
2021/03/10 05:53:04;;;;;;;0.30;0.30;;;;;;;;;;5048348;28;20631;-74
2021/03/10 05:55:33;;;;;;;1.25;1.25;;;;;;;;;;5048725;28;20207;-74
2021/03/10 05:58:00;;;;;;;0.98;0.98;;;;;;;;;;5048096;28;20192;-74
2021/03/10 06:00:26;;;;;;;0.17;0.17;;;;;;;;;;5047171;28;20204;-75
2021/03/10 06:02:53;;;;;;;0.40;0.40;;;;;;;;;;5047958;28;20351;-76
2021/03/10 06:05:23;;;;;;;1.52;1.42;;;;;;;;;;5048612;28;20162;-74
2021/03/10 06:07:59;;;;;;;0.70;0.70;;;;;;;;;;5046652;28;20630;-77
2021/03/10 06:10:35;;;;;;;2.50;2.30;;;;;;;;;;5048223;28;20185;-75
2021/03/10 06:13:01;;;;;;;1.67;1.58;;;;;;;;;;5047352;28;20157;-75
2021/03/10 06:15:28;;;;;;;0.63;0.63;;;;;;;;;;5048302;28;20169;-76
2021/03/10 06:17:54;;;;;;;1.08;1.05;;;;;;;;;;5045836;28;20598;-76
2021/03/10 06:20:31;;;;;;;0.65;0.65;;;;;;;;;;5048452;28;20204;-74
2021/03/10 06:22:57;;;;;;;0.73;0.73;;;;;;;;;;5047375;28;20196;-74
2021/03/10 06:25:24;;;;;;;0.25;0.25;;;;;;;;;;5047381;28;20556;-76
2021/03/10 06:27:54;;;;;;;0.00;0.00;;;;;;;;;;5047644;28;20173;-77
2021/03/10 06:30:32;;;;;;;0.20;0.20;;;;;;;;;;5048375;28;20202;-75
2021/03/10 06:32:58;;;;;;;0.75;0.75;;;;;;;;;;5047902;28;20162;-75
2021/03/10 06:35:25;;;;;;;4.28;2.55;;;;;;;;;;5047615;28;20165;-75
2021/03/10 06:37:52;;;;;;;1.10;1.10;;;;;;;;;;5046983;28;20169;-76
2021/03/10 06:40:19;;;;;;;1.55;1.48;;;;;;;;;;5051838;28;20201;-76
2021/03/10 06:42:55;;;;;;;0.08;0.08;;;;;;;;;;5052237;28;20200;-75
2021/03/10 06:45:32;;;;;;;0.43;0.43;;;;;;;;;;5050501;28;20161;-75
2021/03/10 06:47:58;;;;;;;0.73;0.73;;;;;;;;;;5050691;28;20532;-77
2021/03/10 06:50:37;;;;;;;0.73;0.73;;;;;;;;;;5051760;28;20204;-75
2021/03/10 06:53:04;;;;;;;1.23;1.08;;;;;;;;;;5040982;28;20271;-74
2021/03/10 06:55:42;;;;;;;1.90;1.52;;;;;;;;;;5050969;28;20215;-75
2021/03/10 06:58:09;;;;;;;3.30;1.17;;;;;;;;;;5051042;28;20180;-74
2021/03/10 07:00:36;;;;;;;1.77;1.67;;;;;;;;;;5050958;28;20197;-75
2021/03/10 07:03:02;;;;;;;0.70;0.70;;;;;;;;;;5050441;28;20271;-74
2021/03/10 07:05:31;;;;;;;0.65;0.65;;;;;;;;;;5051296;28;20177;-75
2021/03/10 07:07:58;;;;;;;0.82;0.82;;;;;;;;;;5049172;28;20162;-76
2021/03/10 07:10:26;;;;;;;1.10;1.10;;;;;;;;;;5051506;28;20264;-76
2021/03/10 07:12:56;;;;;;;1.10;1.10;;;;;;;;;;5051364;28;20204;-75
2021/03/10 07:15:22;;;;;;;0.68;0.68;;;;;;;;;;5051378;28;20229;-76
2021/03/10 07:17:49;;;;;;;1.27;0.82;;;;;;;;;;5048220;28;20215;-78
2021/03/10 07:20:15;;;;;;;1.45;1.17;;;;;;;;;;5051173;28;20197;-76
2021/03/10 07:22:46;;;;;;;0.32;0.32;;;;;;;;;;5051259;28;20646;-76
2021/03/10 07:25:16;;;;;;;0.77;0.77;;;;;;;;;;5051007;28;20188;-75
2021/03/10 07:27:46;;;;;;;1.00;1.00;;;;;;;;;;5050014;28;20208;-74
2021/03/10 07:30:12;;;;;;;0.10;0.10;;;;;;;;;;5050747;28;20193;-75
2021/03/10 07:32:38;;;;;;;0.52;0.52;;;;;;;;;;5050963;28;20157;-76
2021/03/10 07:35:06;;;;;;;0.10;0.10;;;;;;;;;;5051232;28;20169;-76
2021/03/10 07:37:33;;;;;;;0.73;0.73;;;;;;;;;;5050990;28;20194;-75
2021/03/10 07:40:11;;;;;;;2.47;1.92;;;;;;;;;;5048874;28;20200;-76
2021/03/10 07:42:49;;;;;;;0.30;0.30;;;;;;;;;;5049602;28;20228;-75
2021/03/10 07:45:16;;;;;;;2.15;1.52;;;;;;;;;;5050709;28;20221;-76
2021/03/10 07:47:49;;;;;;;0.75;0.75;;;;;;;;;;5049651;28;20162;-76
2021/03/10 07:50:15;;;;;;;1.83;1.70;;;;;;;;;;5048251;28;20205;-74
2021/03/10 07:52:49;;;;;;;1.13;1.13;;;;;;;;;;5049342;28;20189;-76
2021/03/10 07:55:15;;;;;;;1.45;1.05;;;;;;;;;;5047411;28;20192;-76
2021/03/10 07:57:49;;;;;;;1.83;1.73;;;;;;;;;;5049904;28;20197;-76
2021/03/10 08:00:16;;;;;;;1.23;1.23;;;;;;;;;;5047755;28;20214;-75
2021/03/10 08:02:47;;;;;;;1.52;1.42;;;;;;;;;;5050408;28;20196;-76
2021/03/10 08:05:20;;;;;;;0.73;0.73;;;;;;;;;;5044711;28;20177;-75
2021/03/10 08:07:46;;;;;;;0.75;0.75;;;;;;;;;;5038480;28;20174;-76
2021/03/10 08:10:12;;;;;;;0.28;0.28;;;;;;;;;;5040216;28;20197;-75
2021/03/10 08:12:40;;;;;;;0.68;0.68;;;;;;;;;;5040715;28;20173;-75
2021/03/10 08:15:07;;;;;;;1.02;0.98;;;;;;;;;;5039600;28;20188;-75
2021/03/10 08:17:33;;;;;;;1.88;1.70;;;;;;;;;;5044619;28;20199;-75
2021/03/10 08:20:01;;;;;;;1.33;1.23;;;;;;;;;;5038269;28;20213;-75
2021/03/10 08:22:28;;;;;;;0.73;0.73;;;;;;;;;;5039201;28;20253;-74
2021/03/10 08:24:55;;;;;;;2.97;1.40;;;;;;;;;;5050022;28;20315;-72
2021/03/10 08:27:34;;;;;;;2.13;1.98;;;;;;;;;;5050289;28;20184;-74
2021/03/10 08:30:01;;;;;;;2.33;0.93;;;;;;;;;;5049355;28;20204;-73
2021/03/10 08:32:30;;;;;;;1.95;1.85;;;;;;;;;;5038937;28;20189;-71
2021/03/10 08:35:01;;;;;;;0.65;0.57;;;;;;;;;;5037558;28;20188;-71
2021/03/10 08:37:28;;;;;;;1.67;1.58;;;;;;;;;;5054152;28;20538;-71
2021/03/10 08:39:55;;;;;;;1.25;1.15;;;;;;;;;;5039405;28;20229;-73
2021/03/10 08:42:22;;;;;;;1.73;1.63;;;;;;;;;;5040688;28;20236;-72
2021/03/10 08:44:49;;;;;;;0.40;0.40;;;;;;;;;;5040806;28;20176;-73
2021/03/10 08:47:16;;;;;;;0.55;0.55;;;;;;;;;;5039211;28;20170;-73
2021/03/10 08:49:49;;;;;;;4.82;1.17;;;;;;;;;;5032330;28;20259;-73
2021/03/10 08:52:16;;;;;;;1.55;0.68;;;;;;;;;;5029780;28;20158;-73
2021/03/10 08:54:56;;;;;;;0.40;0.40;;;;;;;;;;5028708;28;20229;-73
2021/03/10 08:57:24;;;;;;;0.43;0.43;;;;;;;;;;5029658;28;20316;-73
2021/03/10 08:59:51;;;;;;;2.00;1.85;;;;;;;;;;5028610;28;20220;-72
2021/03/10 09:02:25;;;;;;;0.20;0.20;;;;;;;;;;5029299;28;20189;-68
2021/03/10 09:04:54;;;;;;;3.50;1.25;;;;;;;;;;5029092;28;20169;-69
2021/03/10 09:07:21;;;;;;;1.95;1.20;;;;;;;;;;5028073;28;20174;-68
2021/03/10 09:09:52;;;;;;;0.70;0.70;;;;;;;;;;5028629;28;20217;-69
2021/03/10 09:12:19;;;;;;;0.77;0.77;;;;;;;;;;5029300;28;20192;-68
2021/03/10 09:14:46;;;;;;;2.45;0.73;;;;;;;;;;5029338;28;20154;-69
2021/03/10 09:17:12;;;;;;;0.70;0.70;;;;;;;;;;5028354;28;20174;-69
2021/03/10 09:19:40;;;;;;;0.60;0.60;;;;;;;;;;5037563;28;20276;-69
2021/03/10 09:22:11;;;;;;;2.17;0.90;;;;;;;;;;5029351;28;20231;-69
2021/03/10 09:25:00;;;;;;;0.75;0.75;;;;;;;;;;5047719;28;20185;-69
2021/03/10 09:27:27;;;;;;;4.15;1.95;;;;;;;;;;5042462;28;20189;-69
2021/03/10 09:29:55;;;;;;;2.70;0.95;;;;;;;;;;5043611;28;20229;-69
2021/03/10 09:32:22;;;;;;;2.22;2.08;;;;;;;;;;5046924;28;20184;-69
2021/03/10 09:34:52;;;;;;;0.88;0.65;;;;;;;;;;5048305;28;20166;-69
2021/03/10 09:37:22;;;;;;;1.45;1.35;;;;;;;;;;5048842;28;20177;-69
2021/03/10 09:39:50;;;;;;;1.65;1.10;;;;;;;;;;5048627;28;20205;-70
2021/03/10 09:42:16;;;;;;;1.45;1.35;;;;;;;;;;5047348;28;20205;-70
2021/03/10 09:44:47;;;;;;;0.63;0.63;;;;;;;;;;5047409;28;20195;-71
2021/03/10 09:47:18;;;;;;;6.03;1.50;;;;;;;;;;5048523;28;20192;-69
2021/03/10 09:49:48;;;;;;;0.45;0.45;;;;;;;;;;5048435;28;20260;-69
2021/03/10 09:52:14;;;;;;;1.60;1.50;;;;;;;;;;5045955;28;20197;-70
2021/03/10 09:54:54;;;;;;;2.00;1.90;;;;;;;;;;5046351;28;20323;-69
2021/03/10 09:57:25;;;;;;;2.13;1.23;;;;;;;;;;5046841;28;20200;-70
2021/03/10 09:59:51;;;;;;;8.73;3.13;;;;;;;;;;5047920;28;20161;-69
2021/03/10 10:02:17;;;;;;;2.65;1.33;;;;;;;;;;5047699;28;20201;-69
2021/03/10 10:04:44;;;;;;;6.63;1.92;;;;;;;;;;5035713;28;20185;-69
2021/03/10 10:07:12;;;;;;;1.38;1.38;;;;;;;;;;5028703;28;20679;-68
2021/03/10 10:09:39;;;;;;;1.45;1.35;;;;;;;;;;5028173;28;20221;-69
2021/03/10 10:12:05;;;;;;;2.05;1.58;;;;;;;;;;5028792;28;20233;-69
2021/03/10 10:14:32;;;;;;;1.60;1.50;;;;;;;;;;5030988;28;20196;-68
2021/03/10 10:16:58;;;;;;;0.55;0.55;;;;;;;;;;5032620;28;20196;-69
2021/03/10 10:19:24;;;;;;;0.75;0.75;;;;;;;;;;5031804;28;20154;-71
2021/03/10 10:21:51;;;;;;;6.85;1.77;;;;;;;;;;5032111;28;20159;-70
2021/03/10 10:24:18;;;;;;;2.15;1.70;;;;;;;;;;5031296;28;20174;-71
2021/03/10 10:26:45;;;;;;;3.15;2.35;;;;;;;;;;5032240;28;20213;-71
2021/03/10 10:29:11;;;;;;;0.93;0.93;;;;;;;;;;5030720;28;20226;-70
2021/03/10 10:31:37;;;;;;;4.38;1.17;;;;;;;;;;5031917;28;20158;-70
2021/03/10 10:34:04;;;;;;;1.40;1.15;;;;;;;;;;5032038;28;20221;-69
2021/03/10 10:36:30;;;;;;;3.83;2.30;;;;;;;;;;5032172;28;20210;-69
2021/03/10 10:38:56;;;;;;;1.27;1.25;;;;;;;;;;5030998;28;20521;-69
2021/03/10 10:41:22;;;;;;;2.83;1.80;;;;;;;;;;5032280;28;20166;-69
2021/03/10 10:43:49;;;;;;;0.43;0.43;;;;;;;;;;5031443;28;20213;-69
2021/03/10 10:46:15;;;;;;;2.50;2.38;;;;;;;;;;5031907;28;20196;-69
2021/03/10 10:48:41;;;;;;;1.13;1.02;;;;;;;;;;5031846;28;20313;-69
2021/03/10 10:51:07;;;;;;;0.75;0.68;;;;;;;;;;5045639;28;20178;-69
2021/03/10 10:53:34;;;;;;;6.22;1.58;;;;;;;;;;5051799;28;20229;-69
2021/03/10 10:56:00;;;;;;;0.32;0.32;;;;;;;;;;5051745;28;20201;-69
2021/03/10 10:58:26;;;;;;;1.75;1.33;;;;;;;;;;5050594;28;20178;-69
2021/03/10 11:00:52;;;;;;;0.68;0.68;;;;;;;;;;5050578;28;20165;-69
2021/03/10 11:03:19;;;;;;;1.13;1.10;;;;;;;;;;5051459;28;20276;-69
2021/03/10 11:05:45;;;;;;;1.20;1.15;;;;;;;;;;5050391;28;20276;-69
2021/03/10 11:08:11;;;;;;;2.05;1.75;;;;;;;;;;5050126;28;20181;-70
2021/03/10 11:10:37;;;;;;;5.28;1.10;;;;;;;;;;5049769;28;20177;-69
2021/03/10 11:13:03;;;;;;;1.08;1.08;;;;;;;;;;5050052;28;20181;-69
2021/03/10 11:15:30;;;;;;;3.78;1.40;;;;;;;;;;5048897;28;20192;-69
2021/03/10 11:17:56;;;;;;;0.40;0.40;;;;;;;;;;5049292;28;20208;-69
2021/03/10 11:20:23;;;;;;;2.35;2.25;;;;;;;;;;5051346;28;20161;-69
2021/03/10 11:22:49;;;;;;;2.78;2.08;;;;;;;;;;5050880;28;20197;-69
2021/03/10 11:25:15;;;;;;;0.88;0.85;;;;;;;;;;5050504;28;20634;-69
2021/03/10 11:27:42;;;;;;;0.85;0.85;;;;;;;;;;5051035;28;20221;-69
2021/03/10 11:30:09;;;;;;;8.80;1.40;;;;;;;;;;5050566;28;20158;-69
2021/03/10 11:32:35;;;;;;;6.75;2.15;;;;;;;;;;5050628;28;20257;-69
2021/03/10 11:35:02;;;;;;;2.10;2.00;;;;;;;;;;5049735;28;20184;-69
2021/03/10 11:37:28;;;;;;;27.70;1.70;;;;;;;;;;5049508;28;20213;-70
2021/03/10 11:39:55;;;;;;;1.27;1.13;;;;;;;;;;5050661;28;20169;-69
2021/03/10 11:42:21;;;;;;;1.85;1.77;;;;;;;;;;5050386;28;20196;-70
2021/03/10 11:44:47;;;;;;;1.08;1.08;;;;;;;;;;5050843;28;20236;-70
2021/03/10 11:47:13;;;;;;;2.53;1.35;;;;;;;;;;5050657;28;20197;-69
2021/03/10 11:49:39;;;;;;;0.05;0.05;;;;;;;;;;5049691;28;20224;-69
2021/03/10 11:52:06;;;;;;;1.80;1.70;;;;;;;;;;5049959;28;20174;-70
2021/03/10 11:54:32;;;;;;;4.60;2.22;;;;;;;;;;5050535;28;20169;-70
2021/03/10 11:56:58;;;;;;;0.47;0.47;;;;;;;;;;5049254;28;20205;-70
2021/03/10 11:59:25;;;;;;;1.45;1.38;;;;;;;;;;5049174;28;20184;-70
2021/03/10 12:01:51;;;;;;;3.83;1.83;;;;;;;;;;5050058;28;20158;-70
2021/03/10 12:04:17;;;;;;;1.20;1.05;;;;;;;;;;5049267;28;20177;-69
2021/03/10 12:06:43;;;;;;;1.40;1.00;;;;;;;;;;5049845;28;20684;-69
2021/03/10 12:09:10;;;;;;;0.70;0.38;;;;;;;;;;5050254;28;20177;-69
2021/03/10 12:11:36;;;;;;;0.60;0.60;;;;;;;;;;5050020;28;20229;-70
2021/03/10 12:14:02;;;;;;;0.90;0.90;;;;;;;;;;5048953;28;20197;-69
2021/03/10 12:16:28;;;;;;;0.40;0.40;;;;;;;;;;5048720;28;20256;-69
2021/03/10 12:18:54;;;;;;;2.05;1.63;;;;;;;;;;5049719;28;20177;-69
2021/03/10 12:21:21;;;;;;;1.40;1.38;;;;;;;;;;5050038;28;20165;-69
2021/03/10 12:23:47;;;;;;;1.42;1.38;;;;;;;;;;5049580;28;20197;-69
2021/03/10 12:26:13;;;;;;;0.10;0.10;;;;;;;;;;5048485;28;20169;-70
2021/03/10 12:28:39;;;;;;;0.30;0.30;;;;;;;;;;5049896;28;20189;-70
2021/03/10 12:31:05;;;;;;;0.50;0.50;;;;;;;;;;5049622;28;20162;-70
2021/03/10 12:33:32;;;;;;;0.95;0.85;;;;;;;;;;5048644;28;20181;-68
2021/03/10 12:35:58;;;;;;;2.05;1.95;;;;;;;;;;5049006;28;20168;-68
2021/03/10 12:38:24;;;;;;;1.95;1.80;;;;;;;;;;5049542;28;20201;-69
2021/03/10 12:40:50;;;;;;;0.28;0.28;;;;;;;;;;5048490;28;20173;-67
2021/03/10 12:43:16;;;;;;;2.45;1.88;;;;;;;;;;5047954;28;20630;-70
2021/03/10 12:45:43;;;;;;;1.35;1.27;;;;;;;;;;5048157;28;20653;-70
2021/03/10 12:48:09;;;;;;;13.25;1.65;;;;;;;;;;5049140;28;20215;-70
2021/03/10 12:50:36;;;;;;;0.80;0.80;;;;;;;;;;5047332;28;20227;-69
2021/03/10 12:53:02;;;;;;;1.17;0.85;;;;;;;;;;5047713;28;20204;-69
2021/03/10 12:55:28;;;;;;;0.40;0.40;;;;;;;;;;5049359;28;20165;-70
2021/03/10 12:57:54;;;;;;;3.17;1.92;;;;;;;;;;5048232;28;20181;-69
2021/03/10 13:00:21;;;;;;;0.68;0.68;;;;;;;;;;5047114;28;20184;-69
2021/03/10 13:02:48;;;;;;;1.50;1.40;;;;;;;;;;5045933;28;20567;-70
2021/03/10 13:05:15;;;;;;;1.77;1.67;;;;;;;;;;5049504;28;20157;-69
2021/03/10 13:07:41;;;;;;;2.35;1.83;;;;;;;;;;5047684;28;20248;-69
2021/03/10 13:10:07;;;;;;;0.28;0.28;;;;;;;;;;5047948;28;20169;-70
2021/03/10 13:12:36;;;;;;;0.93;0.93;;;;;;;;;;5048756;28;20165;-68
2021/03/10 13:15:03;;;;;;;0.95;0.85;;;;;;;;;;5047822;28;20169;-69
2021/03/10 13:17:29;;;;;;;1.13;1.08;;;;;;;;;;5048925;28;20208;-70
2021/03/10 13:19:55;;;;;;;5.68;2.08;;;;;;;;;;5049237;28;20285;-69
2021/03/10 13:22:21;;;;;;;2.70;0.95;;;;;;;;;;5048761;28;20189;-70
2021/03/10 13:24:48;;;;;;;1.63;1.52;;;;;;;;;;5047551;28;20173;-70
2021/03/10 13:27:14;;;;;;;0.70;0.60;;;;;;;;;;5047363;28;20177;-69
2021/03/10 13:29:40;;;;;;;0.60;0.60;;;;;;;;;;5049002;28;20161;-70
2021/03/10 13:32:06;;;;;;;1.95;0.88;;;;;;;;;;5048395;28;20197;-70
2021/03/10 13:34:32;;;;;;;1.92;1.42;;;;;;;;;;5048836;28;20244;-70
2021/03/10 13:36:58;;;;;;;0.88;0.75;;;;;;;;;;5048836;28;20219;-69
2021/03/10 13:39:26;;;;;;;2.10;2.00;;;;;;;;;;5047518;28;20172;-69
2021/03/10 13:41:52;;;;;;;0.90;0.90;;;;;;;;;;5048697;28;20271;-69
2021/03/10 13:44:19;;;;;;;4.43;0.65;;;;;;;;;;5048399;28;20206;-70
2021/03/10 13:46:45;;;;;;;0.60;0.60;;;;;;;;;;5048374;28;20158;-70
2021/03/10 13:49:11;;;;;;;0.88;0.88;;;;;;;;;;5046908;28;20315;-70
2021/03/10 13:51:37;;;;;;;1.75;1.27;;;;;;;;;;5048268;28;20248;-69
2021/03/10 13:54:03;;;;;;;0.73;0.73;;;;;;;;;;5047460;28;20209;-70
2021/03/10 13:56:29;;;;;;;1.40;1.40;;;;;;;;;;5048489;28;20208;-70
2021/03/10 13:58:56;;;;;;;0.65;0.65;;;;;;;;;;5048670;28;20221;-70
2021/03/10 14:01:22;;;;;;;0.50;0.50;;;;;;;;;;5046682;28;20201;-69
2021/03/10 14:03:48;;;;;;;0.93;0.93;;;;;;;;;;5046703;28;20197;-69
2021/03/10 14:06:14;;;;;;;3.08;1.58;;;;;;;;;;5048619;28;20158;-69
2021/03/10 14:08:40;;;;;;;1.58;1.58;;;;;;;;;;5047061;28;20712;-70
2021/03/10 14:11:07;;;;;;;0.90;0.77;;;;;;;;;;5048091;28;20196;-71
2021/03/10 14:13:33;;;;;;;0.35;0.35;;;;;;;;;;5047004;28;20177;-70
2021/03/10 14:15:59;;;;;;;3.83;3.50;;;;;;;;;;5048521;28;20195;-71
2021/03/10 14:18:25;;;;;;;0.88;0.75;;;;;;;;;;5048455;28;20157;-71
2021/03/10 14:20:52;;;;;;;2.85;2.72;;;;;;;;;;5048125;28;20197;-70
2021/03/10 14:23:18;;;;;;;1.65;1.33;;;;;;;;;;5031824;28;20200;-70
2021/03/10 14:25:44;;;;;;;1.42;1.05;;;;;;;;;;5037379;28;20177;-70
2021/03/10 14:28:10;;;;;;;0.63;0.63;;;;;;;;;;5048287;28;20173;-71
2021/03/10 14:30:38;;;;;;;0.30;0.30;;;;;;;;;;5048485;28;20181;-69
2021/03/10 14:33:05;;;;;;;0.57;0.57;;;;;;;;;;5047806;28;20165;-75
2021/03/10 14:35:31;;;;;;;0.32;0.32;;;;;;;;;;5046861;28;20249;-75
2021/03/10 14:37:57;;;;;;;0.80;0.80;;;;;;;;;;5048131;28;20233;-74
2021/03/10 14:40:24;;;;;;;0.43;0.43;;;;;;;;;;5048168;28;20201;-74
2021/03/10 14:42:50;;;;;;;0.10;0.10;;;;;;;;;;5046883;28;20201;-73
2021/03/10 14:45:17;;;;;;;0.52;0.52;;;;;;;;;;5046843;28;20166;-76